createdAt,value
2022-11-08T00:02:22.406Z,100449.16
2022-11-08T00:04:48.950Z,100454.28
2022-11-08T00:07:33.975Z,100459.47
2022-11-08T00:10:18.769Z,100466.41
2022-11-08T00:13:03.465Z,100457.56
2022-11-08T00:15:33.279Z,100470.63
2022-11-08T00:17:59.677Z,100461.84
2022-11-08T00:20:26.103Z,100460.94
2022-11-08T00:22:52.553Z,100462.63
2022-11-08T00:25:18.929Z,100466.06
2022-11-08T00:27:45.351Z,100464.28
2022-11-08T00:30:11.924Z,100463.31
2022-11-08T00:32:38.330Z,100467.69
2022-11-08T00:35:05.225Z,100454.53
2022-11-08T00:37:31.655Z,100462.41
2022-11-08T00:39:58.026Z,100458.94
2022-11-08T00:42:24.529Z,100467.59
2022-11-08T00:44:50.926Z,100471.09
2022-11-08T00:47:17.346Z,100467.59
2022-11-08T00:49:43.798Z,100459.75
2022-11-08T00:52:10.211Z,100463.19
2022-11-08T00:54:36.594Z,100462.31
2022-11-08T00:57:03.112Z,100466.66
2022-11-08T00:59:29.567Z,100465.78
2022-11-08T01:01:56.119Z,100461.41
2022-11-08T01:04:22.690Z,100464.94
2022-11-08T01:06:49.114Z,100456.22
2022-11-08T01:09:16.071Z,100455.31
2022-11-08T01:11:46.325Z,100457.91
2022-11-08T01:14:14.030Z,100455.19
2022-11-08T01:16:41.151Z,100448.19
2022-11-08T01:19:07.901Z,100443.75
2022-11-08T01:21:34.798Z,100436.72
2022-11-08T01:24:01.256Z,100443.72
2022-11-08T01:26:29.309Z,100446.34
2022-11-08T01:28:57.231Z,100441.09
2022-11-08T01:31:26.013Z,100439.28
2022-11-08T01:33:52.965Z,100427.94
2022-11-08T01:36:25.888Z,100424.34
2022-11-08T01:38:53.533Z,100427.00
2022-11-08T01:41:22.078Z,100417.44
2022-11-08T01:43:51.117Z,100424.50
2022-11-08T01:46:29.833Z,100406.16
2022-11-08T01:49:15.247Z,100412.28
2022-11-08T01:52:02.857Z,100413.94
2022-11-08T01:54:32.389Z,100405.19
2022-11-08T01:57:02.681Z,100405.97
2022-11-08T01:59:30.465Z,100403.34
2022-11-08T02:01:57.117Z,100403.31
2022-11-08T02:04:23.841Z,100398.09
2022-11-08T02:06:51.453Z,100397.16
2022-11-08T02:09:18.764Z,100394.47
2022-11-08T02:11:47.506Z,100397.88
2022-11-08T02:14:14.586Z,100405.66
2022-11-08T02:16:41.086Z,100399.56
2022-11-08T02:19:11.514Z,100393.34
2022-11-08T02:21:51.906Z,100394.31
2022-11-08T02:24:18.456Z,100392.53
2022-11-08T02:26:46.290Z,100390.78
2022-11-08T02:29:26.550Z,100383.75
2022-11-08T02:31:53.907Z,100384.72
2022-11-08T02:34:25.601Z,100383.91
2022-11-08T02:36:52.285Z,100390.03
2022-11-08T02:39:18.708Z,100385.63
2022-11-08T02:41:45.126Z,100384.66
2022-11-08T02:44:11.585Z,100386.38
2022-11-08T02:46:38.058Z,100382.00
2022-11-08T02:49:04.512Z,100373.31
2022-11-08T02:51:30.941Z,100376.09
2022-11-08T02:53:57.321Z,100370.06
2022-11-08T02:56:23.774Z,100368.28
2022-11-08T02:58:50.164Z,100364.75
2022-11-08T03:01:16.638Z,100357.91
2022-11-08T03:03:43.096Z,100362.34
2022-11-08T03:06:09.565Z,100348.38
2022-11-08T03:08:36.003Z,100334.44
2022-11-08T03:11:02.446Z,100339.72
2022-11-08T03:13:28.849Z,100337.16
2022-11-08T03:15:55.236Z,100333.78
2022-11-08T03:18:21.630Z,100332.94
2022-11-08T03:20:48.042Z,100318.22
2022-11-08T03:23:14.458Z,100328.75
2022-11-08T03:25:40.834Z,100310.41
2022-11-08T03:28:09.067Z,100306.09
2022-11-08T03:30:36.436Z,100297.41
2022-11-08T03:33:03.218Z,100300.94
2022-11-08T03:35:29.676Z,100291.47
2022-11-08T03:37:57.548Z,100295.81
2022-11-08T03:40:25.565Z,100288.00
2022-11-08T03:42:52.267Z,100290.69
2022-11-08T03:45:18.677Z,100295.06
2022-11-08T03:47:47.224Z,100288.91
2022-11-08T03:50:15.463Z,100287.19
2022-11-08T03:52:50.516Z,100289.00
2022-11-08T03:55:18.848Z,100283.78
2022-11-08T03:57:47.317Z,100289.09
2022-11-08T04:00:16.728Z,100282.22
2022-11-08T04:02:43.697Z,100277.91
2022-11-08T04:05:11.971Z,100290.09
2022-11-08T04:07:38.957Z,100284.91
2022-11-08T04:10:06.908Z,100285.84
2022-11-08T04:12:52.271Z,100279.78
2022-11-08T04:15:22.308Z,100272.88
2022-11-08T04:18:11.411Z,100278.97
2022-11-08T04:21:03.856Z,100275.53
2022-11-08T04:23:32.316Z,100265.97
2022-11-08T04:26:01.249Z,100264.19
2022-11-08T04:28:30.455Z,100263.41
2022-11-08T04:31:02.954Z,100266.00
2022-11-08T04:33:29.574Z,100260.88
2022-11-08T04:35:56.058Z,100264.41
2022-11-08T04:38:22.446Z,100265.31
2022-11-08T04:40:48.906Z,100261.91
2022-11-08T04:43:15.485Z,100260.16
2022-11-08T04:45:41.912Z,100253.25
2022-11-08T04:48:08.714Z,100252.38
2022-11-08T04:50:36.114Z,100255.88
2022-11-08T04:53:02.536Z,100252.50
2022-11-08T04:55:28.961Z,100253.41
2022-11-08T04:57:58.574Z,100235.22
2022-11-08T05:00:25.434Z,100234.38
2022-11-08T05:02:51.934Z,100234.31
2022-11-08T05:05:18.506Z,100225.66
2022-11-08T05:07:44.911Z,100220.41
2022-11-08T05:10:11.367Z,100215.22
2022-11-08T05:12:37.749Z,100208.22
2022-11-08T05:15:04.486Z,100201.34
2022-11-08T05:17:30.898Z,100199.63
2022-11-08T05:20:15.963Z,100189.19
2022-11-08T05:23:00.802Z,100190.94
2022-11-08T05:25:27.168Z,100190.16
2022-11-08T05:27:53.682Z,100184.91
2022-11-08T05:30:20.112Z,100173.69
2022-11-08T05:32:46.543Z,100166.75
2022-11-08T05:35:12.937Z,100165.03
2022-11-08T05:37:41.923Z,100163.38
2022-11-08T05:40:09.143Z,100157.34
2022-11-08T05:42:35.638Z,100155.53
2022-11-08T05:45:05.247Z,100151.03
2022-11-08T05:47:34.710Z,100148.34
2022-11-08T05:50:01.117Z,100148.34
2022-11-08T05:52:27.538Z,100154.56
2022-11-08T05:54:54.358Z,100158.88
2022-11-08T05:57:22.278Z,100151.03
2022-11-08T05:59:48.754Z,100143.16
2022-11-08T06:02:17.021Z,100133.59
2022-11-08T06:04:43.901Z,100121.31
2022-11-08T06:07:10.281Z,100113.34
2022-11-08T06:09:36.694Z,100108.03
2022-11-08T06:12:03.228Z,100095.69
2022-11-08T06:14:29.760Z,100093.88
2022-11-08T06:16:56.181Z,100086.06
2022-11-08T06:19:22.606Z,100083.41
2022-11-08T06:21:49.037Z,100083.28
2022-11-08T06:24:17.362Z,100091.75
2022-11-08T06:26:44.395Z,100082.13
2022-11-08T06:29:10.848Z,100090.84
2022-11-08T06:31:41.824Z,100100.41
2022-11-08T06:34:09.493Z,100104.75
2022-11-08T06:36:36.062Z,100109.03
2022-11-08T06:39:02.619Z,100104.50
2022-11-08T06:41:29.981Z,100096.47
2022-11-08T06:43:56.595Z,100102.44
2022-11-08T06:46:23.370Z,100106.78
2022-11-08T06:48:49.974Z,100104.31
2022-11-08T06:51:16.496Z,100103.38
2022-11-08T06:53:43.152Z,100097.31
2022-11-08T06:56:11.343Z,100104.22
2022-11-08T06:58:38.149Z,100103.47
2022-11-08T07:01:06.635Z,100108.75
2022-11-08T07:03:33.588Z,100113.03
2022-11-08T07:06:04.673Z,100113.84
2022-11-08T07:08:32.474Z,100117.28
2022-11-08T07:10:59.138Z,100113.84
2022-11-08T07:13:25.573Z,100118.19
2022-11-08T07:15:52.053Z,100117.19
2022-11-08T07:18:19.850Z,100116.16
2022-11-08T07:20:47.132Z,100119.59
2022-11-08T07:23:14.043Z,100120.44
2022-11-08T07:25:40.522Z,100125.69
2022-11-08T07:28:12.683Z,100126.56
2022-11-08T07:30:39.102Z,100124.84
2022-11-08T07:33:05.519Z,100107.34
2022-11-08T07:35:32.013Z,100097.72
2022-11-08T07:37:58.497Z,100099.41
2022-11-08T07:40:25.054Z,100108.97
2022-11-08T07:45:38.606Z,100108.91
2022-11-08T07:48:11.644Z,100111.59
2022-11-08T07:50:40.274Z,100109.66
2022-11-08T07:53:06.735Z,100113.06
2022-11-08T07:55:36.712Z,100122.50
2022-11-08T07:58:03.281Z,100134.53
2022-11-08T08:00:30.648Z,100144.03
2022-11-08T08:03:01.142Z,100144.91
2022-11-08T08:05:29.766Z,100148.19
2022-11-08T08:07:58.081Z,100143.72
2022-11-08T08:10:25.108Z,100139.31
2022-11-08T08:12:51.707Z,100130.47
2022-11-08T08:15:18.242Z,100123.31
2022-11-08T08:17:44.771Z,100124.13
2022-11-08T08:20:11.932Z,100118.81
2022-11-08T08:22:47.092Z,100116.13
2022-11-08T08:25:14.571Z,100118.63
2022-11-08T08:27:45.865Z,100121.97
2022-11-08T08:30:12.559Z,100120.00
2022-11-08T08:32:39.036Z,100109.56
2022-11-08T08:35:05.760Z,100112.13
2022-11-08T08:37:32.182Z,100116.38
2022-11-08T08:39:58.612Z,100113.63
2022-11-08T08:42:25.098Z,100125.91
2022-11-08T08:44:51.556Z,100124.25
2022-11-08T08:47:18.107Z,100127.69
2022-11-08T08:49:44.513Z,100119.75
2022-11-08T08:52:10.986Z,100143.38
2022-11-08T08:54:37.395Z,100146.09
2022-11-08T08:57:03.891Z,100129.38
2022-11-08T09:02:16.964Z,100123.03
2022-11-08T09:04:43.354Z,100125.53
2022-11-08T09:07:09.837Z,100116.66
2022-11-08T09:09:36.401Z,100105.09
2022-11-08T09:12:03.357Z,100109.31
2022-11-08T09:14:29.846Z,100117.97
2022-11-08T09:16:56.941Z,100118.03
2022-11-08T09:19:23.423Z,100117.09
2022-11-08T09:21:50.236Z,100125.66
2022-11-08T09:24:17.263Z,100132.66
2022-11-08T09:26:43.717Z,100132.59
2022-11-08T09:29:10.184Z,100133.50
2022-11-08T09:31:36.673Z,100136.06
2022-11-08T09:36:34.408Z,100130.47
2022-11-08T09:39:00.916Z,100139.28
2022-11-08T09:41:46.661Z,100132.19
2022-11-08T09:44:26.350Z,100125.97
2022-11-08T09:46:56.851Z,100117.00
2022-11-08T09:49:37.802Z,100118.72
2022-11-08T09:52:05.340Z,100109.06
2022-11-08T09:54:38.396Z,100106.44
2022-11-08T09:57:06.348Z,100106.38
2022-11-08T09:59:32.829Z,100107.22
2022-11-08T10:01:59.456Z,100108.84
2022-11-08T10:04:28.826Z,100110.50
2022-11-08T10:07:04.370Z,100108.59
2022-11-08T10:10:08.459Z,100096.34
2022-11-08T10:13:26.399Z,100093.59
2022-11-08T10:16:06.873Z,100085.56
2022-11-08T10:18:58.003Z,100073.13
2022-11-08T10:21:55.239Z,100079.00
2022-11-08T10:24:46.917Z,100086.03
2022-11-08T10:27:34.265Z,100084.28
2022-11-08T10:30:05.046Z,100079.09
2022-11-08T10:32:34.724Z,100080.78
2022-11-08T10:35:18.046Z,100071.22
2022-11-08T10:37:44.865Z,100073.78
2022-11-08T10:40:34.174Z,100068.44
2022-11-08T10:43:29.883Z,100083.22
2022-11-08T10:45:56.499Z,100084.84
2022-11-08T10:48:23.123Z,100069.84
2022-11-08T10:50:51.351Z,100071.41
2022-11-08T10:53:30.460Z,100073.19
2022-11-08T10:56:02.156Z,100066.13
2022-11-08T10:58:37.437Z,100069.56
2022-11-08T11:01:06.041Z,100062.41
2022-11-08T11:03:33.101Z,100069.97
2022-11-08T11:06:02.034Z,100069.84
2022-11-08T11:08:28.850Z,100049.59
2022-11-08T11:10:56.032Z,100049.50
2022-11-08T11:15:58.866Z,100051.81
2022-11-08T11:18:32.173Z,100038.38
2022-11-08T11:21:00.921Z,100035.72
2022-11-08T11:23:42.859Z,100041.69
2022-11-08T11:26:19.767Z,100040.69
2022-11-08T11:29:09.445Z,100041.50
2022-11-08T11:31:38.399Z,100041.22
2022-11-08T11:34:16.795Z,100038.88
2022-11-08T11:36:47.958Z,100027.50
2022-11-08T11:39:23.071Z,100031.91
2022-11-08T11:42:02.753Z,100029.13
2022-11-08T11:44:58.301Z,100031.56
2022-11-08T11:47:31.411Z,100037.69
2022-11-08T11:50:04.524Z,100027.94
2022-11-08T11:52:31.669Z,100021.75
2022-11-08T11:54:58.196Z,100026.09
2022-11-08T11:57:27.308Z,100027.53
2022-11-08T12:00:10.390Z,100027.59
2022-11-08T12:03:18.247Z,100038.22
2022-11-08T12:05:47.955Z,100039.69
2022-11-08T12:08:34.203Z,100026.69
2022-11-08T12:11:53.473Z,100031.88
2022-11-08T12:14:38.731Z,100038.13
2022-11-08T12:17:25.177Z,100030.03
2022-11-08T12:20:27.325Z,100040.44
2022-11-08T12:23:18.753Z,100042.59
2022-11-08T12:26:02.393Z,100050.25
2022-11-08T12:28:42.214Z,100053.56
2022-11-08T12:31:26.812Z,100058.56
2022-11-08T12:34:18.257Z,100051.50
2022-11-08T12:36:50.791Z,100057.56
2022-11-08T12:39:46.992Z,100043.53
2022-11-08T12:42:16.293Z,100052.50
2022-11-08T12:45:20.585Z,100041.97
2022-11-08T12:48:13.527Z,100040.25
2022-11-08T12:51:02.927Z,100044.38
2022-11-08T12:54:00.360Z,100034.50
2022-11-08T12:56:59.854Z,100043.81
2022-11-08T12:59:28.386Z,100044.09
2022-11-08T13:01:56.789Z,100024.91
2022-11-08T13:04:38.598Z,100006.47
2022-11-08T13:07:11.213Z,99997.59
2022-11-08T13:10:03.995Z,99984.75
2022-11-08T13:13:12.153Z,99978.84
2022-11-08T13:16:08.936Z,99976.28
2022-11-08T13:18:45.992Z,99980.63
2022-11-08T13:21:34.285Z,99976.00
2022-11-08T13:24:30.491Z,99972.38
2022-11-08T13:27:33.534Z,99972.09
2022-11-08T13:30:12.080Z,99962.03
2022-11-08T13:32:59.308Z,99964.38
2022-11-08T13:35:33.429Z,99961.88
2022-11-08T13:38:40.151Z,99956.59
2022-11-08T13:41:26.857Z,99955.66
2022-11-08T13:43:55.200Z,99963.56
2022-11-08T13:46:30.767Z,99956.69
2022-11-08T13:49:05.072Z,99955.06
2022-11-08T13:51:36.342Z,99973.59
2022-11-08T13:54:20.987Z,99982.47
2022-11-08T13:56:58.032Z,99979.22
2022-11-08T13:59:33.586Z,99979.22
2022-11-08T14:02:05.678Z,99954.56
2022-11-08T14:04:33.589Z,99945.72
2022-11-08T14:07:33.229Z,99949.28
2022-11-08T14:10:17.656Z,99950.06
2022-11-08T14:12:55.358Z,99961.19
2022-11-08T14:15:34.037Z,99955.66
2022-11-08T14:18:09.875Z,99946.78
2022-11-08T14:20:46.702Z,99955.63
2022-11-08T14:23:25.550Z,99958.47
2022-11-08T14:25:56.081Z,99959.56
2022-11-08T14:28:22.870Z,99952.78
2022-11-08T14:30:50.847Z,99958.25
2022-11-08T14:33:19.182Z,99966.25
2022-11-08T14:35:59.338Z,99967.25
2022-11-08T14:38:28.103Z,99960.28
2022-11-08T14:40:58.561Z,99964.63
2022-11-08T14:43:25.848Z,99965.53
2022-11-08T14:45:53.520Z,99958.66
2022-11-08T14:48:28.005Z,99961.28
2022-11-08T14:51:02.522Z,99957.75
2022-11-08T14:53:44.078Z,99950.78
2022-11-08T14:56:24.325Z,99954.44
2022-11-08T14:58:53.099Z,99958.78
2022-11-08T15:01:23.867Z,99966.88
2022-11-08T15:04:02.384Z,99970.38
2022-11-08T15:06:41.554Z,99973.06
2022-11-08T15:09:18.845Z,99969.72
2022-11-08T15:11:52.913Z,99980.31
2022-11-08T15:14:22.701Z,99978.63
2022-11-08T15:16:52.124Z,99978.63
2022-11-08T15:19:37.001Z,99978.63
2022-11-08T15:22:26.473Z,99975.22
2022-11-08T15:25:14.214Z,99965.59
2022-11-08T15:27:51.096Z,99968.50
2022-11-08T15:30:40.961Z,99966.00
2022-11-08T15:33:24.213Z,99965.38
2022-11-08T15:35:51.002Z,99957.66
2022-11-08T15:38:38.342Z,99950.56
2022-11-08T15:41:25.747Z,99958.81
2022-11-08T15:43:54.971Z,99955.03
2022-11-08T15:46:33.692Z,99945.34
2022-11-08T15:49:00.236Z,99945.44
2022-11-08T15:51:26.689Z,99945.09
2022-11-08T15:53:53.171Z,99949.16
2022-11-08T15:56:19.855Z,99935.97
2022-11-08T15:58:46.512Z,99942.78
2022-11-08T16:01:21.130Z,99929.50
2022-11-08T16:03:48.386Z,99930.28
2022-11-08T16:06:15.349Z,99920.44
2022-11-08T16:08:42.101Z,99913.13
2022-11-08T16:11:18.631Z,99919.66
2022-11-08T16:13:45.258Z,99919.59
2022-11-08T16:16:17.246Z,99921.97
2022-11-08T16:18:44.054Z,99914.06
2022-11-08T16:21:12.226Z,99925.38
2022-11-08T16:23:39.844Z,99924.16
2022-11-08T16:26:08.304Z,99921.97
2022-11-08T16:28:38.095Z,99921.03
2022-11-08T16:31:07.135Z,99921.69
2022-11-08T16:33:35.676Z,99936.50
2022-11-08T16:36:09.472Z,99932.34
2022-11-08T16:38:37.448Z,99925.25
2022-11-08T16:41:05.009Z,99930.38
2022-11-08T16:43:31.937Z,99923.75
2022-11-08T16:46:05.255Z,99935.00
2022-11-08T16:48:33.079Z,99924.31
2022-11-08T16:51:03.596Z,99935.78
2022-11-08T16:53:30.117Z,99937.50
2022-11-08T16:55:57.190Z,99930.38
2022-11-08T16:58:24.187Z,99935.56
2022-11-08T17:00:51.256Z,99936.56
2022-11-08T17:03:24.310Z,99925.38
2022-11-08T17:05:51.161Z,99932.22
2022-11-08T17:08:17.882Z,99934.00
2022-11-08T17:10:44.586Z,99933.19
2022-11-08T17:13:15.517Z,99937.91
2022-11-08T17:15:42.496Z,99939.44
2022-11-08T17:18:14.435Z,99933.66
2022-11-08T17:20:41.656Z,99937.41
2022-11-08T17:23:09.004Z,99939.91
2022-11-08T17:25:37.240Z,99940.91
2022-11-08T17:28:04.448Z,99934.69
2022-11-08T17:30:31.064Z,99938.97
2022-11-08T17:32:57.719Z,99944.53
2022-11-08T17:35:24.604Z,99940.25
2022-11-08T17:37:51.003Z,99931.50
2022-11-08T17:40:17.523Z,99931.69
2022-11-08T17:42:45.224Z,99940.66
2022-11-08T17:45:11.886Z,99932.63
2022-11-08T17:47:39.087Z,99943.16
2022-11-08T17:50:06.546Z,99937.69
2022-11-08T17:52:33.282Z,99958.84
2022-11-08T17:54:59.718Z,99955.53
2022-11-08T17:57:26.207Z,99958.16
2022-11-08T17:59:52.685Z,99948.56
2022-11-08T18:02:19.315Z,99948.31
2022-11-08T18:04:45.960Z,99938.09
2022-11-08T18:07:12.580Z,99942.97
2022-11-08T18:09:39.145Z,99951.03
2022-11-08T18:12:05.838Z,99950.13
2022-11-08T18:14:32.363Z,99957.72
2022-11-08T18:16:59.768Z,99958.78
2022-11-08T18:19:26.544Z,99958.94
2022-11-08T18:21:52.987Z,99954.44
2022-11-08T18:24:19.567Z,99952.50
2022-11-08T18:26:46.024Z,99955.22
2022-11-08T18:29:12.450Z,99948.53
2022-11-08T18:31:39.067Z,99950.50
2022-11-08T18:34:05.532Z,99943.69
2022-11-08T18:36:32.250Z,99939.19
2022-11-08T18:39:02.712Z,99935.63
2022-11-08T18:41:31.854Z,99940.75
2022-11-08T18:43:59.574Z,99943.75
2022-11-08T18:46:28.843Z,99953.38
2022-11-08T18:48:55.599Z,99949.25
2022-11-08T18:51:23.310Z,99944.94
2022-11-08T18:53:52.486Z,99947.78
2022-11-08T18:56:19.587Z,99943.38
2022-11-08T18:58:49.118Z,99945.94
2022-11-08T19:01:16.164Z,99951.03
2022-11-08T19:03:43.323Z,99935.16
2022-11-08T19:06:09.854Z,99942.88
2022-11-08T19:08:37.118Z,99942.03
2022-11-08T19:11:09.335Z,99935.16
2022-11-08T19:13:38.038Z,99944.88
2022-11-08T19:16:18.303Z,99943.81
2022-11-08T19:18:49.702Z,99936.69
2022-11-08T19:21:22.060Z,99938.47
2022-11-08T19:23:49.335Z,99939.31
2022-11-08T19:26:23.591Z,99942.44
2022-11-08T19:28:53.328Z,99953.84
2022-11-08T19:31:22.138Z,99945.88
2022-11-08T19:33:51.098Z,99936.91
2022-11-08T19:36:22.895Z,99934.34
2022-11-08T19:38:50.100Z,99929.22
2022-11-08T19:41:20.129Z,99937.34
2022-11-08T19:43:47.576Z,99948.66
2022-11-08T19:46:16.445Z,99949.50
2022-11-08T19:48:44.981Z,99944.19
2022-11-08T19:51:23.859Z,99940.47
2022-11-08T19:53:54.008Z,99941.22
2022-11-08T19:56:29.190Z,99946.44
2022-11-08T19:59:04.727Z,99946.59
2022-11-08T20:01:40.067Z,99950.06
2022-11-08T20:04:09.107Z,99947.44
2022-11-08T20:06:36.687Z,99942.31
2022-11-08T20:09:05.611Z,99950.16
2022-11-08T20:11:35.942Z,99962.75
2022-11-08T20:14:04.181Z,99945.25
2022-11-08T20:16:35.924Z,99962.13
2022-11-08T20:19:06.046Z,99964.19
2022-11-08T20:21:33.279Z,99966.22
2022-11-08T20:24:00.489Z,99961.09
2022-11-08T20:26:27.481Z,99975.13
2022-11-08T20:28:56.674Z,99977.03
2022-11-08T20:31:24.703Z,99975.84
2022-11-08T20:33:53.127Z,99986.44
2022-11-08T20:36:22.370Z,99984.88
2022-11-08T20:38:49.490Z,99986.94
2022-11-08T20:41:17.733Z,99991.44
2022-11-08T20:43:46.373Z,99988.84
2022-11-08T20:46:18.348Z,99987.88
2022-11-08T20:48:50.629Z,99991.13
2022-11-08T20:51:19.103Z,99991.63
2022-11-08T20:53:46.300Z,99990.47
2022-11-08T20:56:16.111Z,99995.19
2022-11-08T20:58:43.900Z,99990.09
2022-11-08T21:01:13.663Z,99988.72
2022-11-08T21:03:40.993Z,99997.59
2022-11-08T21:06:09.802Z,99990.00
2022-11-08T21:11:24.782Z,99981.03
2022-11-08T21:13:51.687Z,99982.88
2022-11-08T21:16:59.383Z,99975.97
2022-11-08T21:19:06.336Z,99987.28
2022-11-08T21:21:33.251Z,99988.13
2022-11-08T21:23:59.931Z,99995.13
2022-11-08T21:26:26.652Z,99991.63
2022-11-08T21:28:53.719Z,99998.81
2022-11-08T21:31:20.347Z,100005.78
2022-11-08T21:33:46.899Z,100003.94
2022-11-08T21:36:13.842Z,99995.97
2022-11-08T21:38:40.617Z,99988.72
2022-11-08T21:41:09.772Z,100000.09
2022-11-08T21:43:37.963Z,99994.19
2022-11-08T21:46:13.354Z,99996.03
2022-11-08T21:48:39.737Z,100001.03
2022-11-08T21:51:06.408Z,100002.81
2022-11-08T21:53:32.935Z,99999.38
2022-11-08T21:55:59.359Z,100007.44
2022-11-08T21:58:25.767Z,100005.44
2022-11-08T22:00:52.702Z,100015.75
2022-11-08T22:03:19.480Z,100018.66
2022-11-08T22:05:46.269Z,100018.97
2022-11-08T22:08:12.638Z,100019.88
2022-11-08T22:10:39.088Z,100026.97
2022-11-08T22:13:05.504Z,100022.72
2022-11-08T22:15:31.938Z,100019.16
2022-11-08T22:18:14.994Z,100011.19
2022-11-08T22:21:06.514Z,100015.47
2022-11-08T22:23:34.084Z,100004.94
2022-11-08T22:26:00.836Z,100005.72
2022-11-08T22:28:27.567Z,99994.34
2022-11-08T22:30:54.071Z,99994.25
2022-11-08T22:33:20.899Z,99994.97
2022-11-08T22:35:47.996Z,99988.91
2022-11-08T22:38:16.179Z,99990.69
2022-11-08T22:40:45.177Z,99994.09
2022-11-08T22:43:12.082Z,99991.56
2022-11-08T22:45:42.831Z,99995.84
2022-11-08T22:48:10.426Z,100000.22
2022-11-08T22:50:38.016Z,100004.59
2022-11-08T22:53:05.006Z,100002.81
2022-11-08T22:55:31.619Z,100009.13
2022-11-08T22:57:58.103Z,99998.53
2022-11-08T23:00:24.575Z,99997.66
2022-11-08T23:02:51.027Z,100004.78
2022-11-08T23:05:17.435Z,99991.63
2022-11-08T23:07:43.842Z,99991.63
2022-11-08T23:10:10.654Z,100000.53
2022-11-08T23:12:55.680Z,100003.94
2022-11-08T23:15:40.527Z,100011.75
2022-11-08T23:18:07.028Z,100017.09
2022-11-08T23:20:52.323Z,100008.28
2022-11-08T23:23:38.148Z,100009.91
2022-11-08T23:26:04.592Z,100016.09
2022-11-08T23:28:49.505Z,100001.22
2022-11-08T23:31:34.727Z,100012.75
2022-11-08T23:34:02.535Z,100010.06
2022-11-08T23:36:29.072Z,100003.78
2022-11-08T23:38:56.644Z,100001.13
2022-11-08T23:41:42.904Z,99998.53
2022-11-08T23:44:24.772Z,100006.66
2022-11-08T23:47:01.368Z,100002.31
2022-11-08T23:49:28.325Z,99997.81
2022-11-08T23:51:54.945Z,100004.09
2022-11-08T23:54:21.494Z,99998.81
2022-11-08T23:56:48.260Z,99998.88
2022-11-08T23:59:15.652Z,99998.81
